Time;durP1;ratioP1;P1;durP2;ratioP2;P2;SDS_P1;SDS_P2;PMS_P1;PMS_P2;Temp;Humidity;BMP_temperature;BMP_pressure;BME280_temperature;BME280_humidity;BME280_pressure;Samples;Min_cycle;Max_cycle;Signal;HPM_P1;HPM_P2
2023/06/24 00:01:36;;;;;;;7.22;5.00;;;25.30;80.10;;;;;;5009735;28;20124;-68
2023/06/24 00:04:02;;;;;;;7.47;4.82;;;25.10;83.00;;;;;;5010613;28;20038;-70
2023/06/24 00:06:28;;;;;;;7.70;5.45;;;24.90;79.60;;;;;;5012626;28;20053;-66
2023/06/24 00:09:00;;;;;;;7.43;5.15;;;25.20;80.00;;;;;;5012603;28;20045;-62
2023/06/24 00:11:29;;;;;;;7.32;5.20;;;24.80;78.80;;;;;;5012871;28;20061;-70
2023/06/24 00:13:55;;;;;;;6.97;4.80;;;24.80;83.20;;;;;;4997635;28;20038;-72
2023/06/24 00:16:27;;;;;;;7.38;5.25;;;25.30;80.20;;;;;;5012872;28;20049;-68
2023/06/24 00:18:58;;;;;;;7.10;5.03;;;25.10;83.20;;;;;;5012838;28;20447;-61
2023/06/24 00:21:29;;;;;;;7.55;5.30;;;25.00;80.30;;;;;;5011449;28;20368;-67
2023/06/24 00:23:58;;;;;;;6.43;4.70;;;24.90;80.20;;;;;;5009732;28;20045;-62
2023/06/24 00:26:25;;;;;;;7.75;4.80;;;25.10;80.30;;;;;;5007054;28;20055;-61
2023/06/24 00:28:51;;;;;;;7.80;5.15;;;25.10;80.20;;;;;;4995002;28;20074;-64
2023/06/24 00:31:16;;;;;;;6.88;5.05;;;24.90;79.80;;;;;;5005668;28;20082;-61
2023/06/24 00:33:42;;;;;;;7.10;5.00;;;25.10;80.00;;;;;;4993108;28;20603;-65
2023/06/24 00:36:11;;;;;;;6.93;5.10;;;24.90;79.90;;;;;;5007859;28;20061;-61
2023/06/24 00:38:38;;;;;;;7.30;4.65;;;25.20;80.20;;;;;;5010709;28;20424;-60
2023/06/24 00:41:04;;;;;;;6.22;4.50;;;24.80;80.10;;;;;;5012614;28;20056;-73
2023/06/24 00:43:29;;;;;;;9.00;5.03;;;24.90;79.90;;;;;;5012303;28;20124;-62
2023/06/24 00:45:56;;;;;;;7.07;5.10;;;24.80;79.80;;;;;;5005024;28;20129;-69
2023/06/24 00:48:22;;;;;;;7.60;5.18;;;24.90;80.10;;;;;;5008797;28;20393;-69
2023/06/24 00:50:49;;;;;;;7.65;5.32;;;25.00;79.60;;;;;;5011191;28;20224;-67
2023/06/24 00:53:16;;;;;;;7.40;4.93;;;25.00;80.00;;;;;;5010595;28;20046;-61
2023/06/24 00:55:42;;;;;;;8.52;5.70;;;24.80;80.00;;;;;;5010379;28;20042;-69
2023/06/24 00:58:08;;;;;;;7.53;4.85;;;25.10;79.90;;;;;;5010865;28;20096;-68
2023/06/24 01:00:34;;;;;;;6.95;5.25;;;25.00;80.00;;;;;;5012473;28;20112;-68
2023/06/24 01:03:00;;;;;;;7.18;5.00;;;24.90;79.80;;;;;;5012893;28;20042;-68
2023/06/24 01:05:28;;;;;;;7.05;5.03;;;25.00;79.90;;;;;;5010116;28;20045;-68
2023/06/24 01:07:56;;;;;;;8.95;5.38;;;24.90;80.60;;;;;;4995162;28;20053;-60
2023/06/24 01:10:23;;;;;;;8.05;5.20;;;25.00;78.90;;;;;;4995410;28;20049;-60
2023/06/24 01:12:50;;;;;;;7.15;5.28;;;24.90;79.80;;;;;;4996595;28;20068;-65
2023/06/24 01:15:15;;;;;;;7.10;4.88;;;24.90;79.80;;;;;;5001558;28;20061;-62
2023/06/24 01:17:41;;;;;;;6.38;4.88;;;25.10;79.90;;;;;;5002767;28;20038;-63
2023/06/24 01:20:30;;;;;;;6.68;4.72;;;25.10;79.90;;;;;;4999891;28;20049;-61
2023/06/24 01:23:06;;;;;;;6.63;4.80;;;25.10;79.00;;;;;;5013452;28;20057;-64
2023/06/24 01:25:41;;;;;;;6.30;4.35;;;25.00;80.30;;;;;;5010390;28;20073;-64
2023/06/24 01:28:20;;;;;;;6.40;4.82;;;24.90;78.80;;;;;;5015643;28;20084;-63
2023/06/24 01:31:00;;;;;;;7.15;4.75;;;25.10;78.90;;;;;;4998876;28;20050;-62
2023/06/24 01:33:36;;;;;;;7.85;4.63;;;24.80;78.60;;;;;;5005202;28;20396;-67
2023/06/24 01:36:02;;;;;;;8.73;4.30;;;24.90;83.00;;;;;;5010839;28;20046;-70
2023/06/24 01:38:35;;;;;;;6.30;4.43;;;24.90;82.60;;;;;;5004753;28;20046;-70
2023/06/24 01:41:00;;;;;;;8.05;4.85;;;24.90;80.10;;;;;;5014136;28;20045;-62
2023/06/24 01:43:26;;;;;;;5.78;4.05;;;24.70;80.20;;;;;;4995900;28;20511;-61
2023/06/24 01:45:53;;;;;;;6.97;4.38;;;24.60;83.20;;;;;;5009683;28;20053;-70
2023/06/24 01:48:22;;;;;;;6.20;4.40;;;24.80;82.80;;;;;;5013518;28;20058;-69
2023/06/24 01:50:59;;;;;;;9.02;4.68;;;24.70;78.40;;;;;;5013562;28;20054;-69
2023/06/24 01:53:26;;;;;;;8.32;5.40;;;24.70;80.20;;;;;;5013352;28;20037;-64
2023/06/24 01:55:53;;;;;;;7.68;5.18;;;24.70;80.00;;;;;;5010351;28;20112;-61
2023/06/24 01:58:18;;;;;;;7.25;5.15;;;24.90;80.00;;;;;;4997681;28;20435;-61
2023/06/24 02:00:44;;;;;;;7.55;5.30;;;24.80;79.60;;;;;;5014828;28;20057;-64
2023/06/24 02:03:10;;;;;;;6.72;4.68;;;24.90;83.20;;;;;;4995498;28;20491;-62
2023/06/24 02:05:36;;;;;;;7.32;5.05;;;24.80;79.60;;;;;;5013717;28;20508;-65
2023/06/24 02:08:02;;;;;;;6.30;4.78;;;24.80;79.70;;;;;;5008280;28;20500;-60
2023/06/24 02:10:28;;;;;;;7.38;5.10;;;24.90;79.50;;;;;;5014617;28;20050;-60
2023/06/24 02:12:54;;;;;;;8.00;4.70;;;24.90;79.60;;;;;;4994181;28;20052;-63
2023/06/24 02:15:19;;;;;;;7.35;5.05;;;24.80;83.10;;;;;;4994734;28;20038;-60
2023/06/24 02:17:47;;;;;;;7.25;4.95;;;25.00;79.60;;;;;;5003751;28;20129;-60
2023/06/24 02:20:13;;;;;;;7.78;4.72;;;24.90;79.90;;;;;;5011080;28;20054;-62
2023/06/24 02:22:39;;;;;;;7.43;4.40;;;24.90;79.60;;;;;;5012601;28;20046;-62
2023/06/24 02:25:05;;;;;;;5.90;4.53;;;25.10;79.80;;;;;;5014364;28;20148;-64
2023/06/24 02:27:31;;;;;;;7.40;4.82;;;25.20;83.40;;;;;;5007490;28;20108;-61
2023/06/24 02:29:57;;;;;;;6.35;4.93;;;24.70;79.80;;;;;;5012405;28;20084;-65
2023/06/24 02:32:23;;;;;;;6.03;4.50;;;24.90;79.60;;;;;;5004577;28;20042;-60
2023/06/24 02:34:49;;;;;;;10.52;4.60;;;24.90;79.60;;;;;;4994926;28;20042;-63
2023/06/24 02:37:14;;;;;;;7.75;4.57;;;25.10;79.80;;;;;;5010632;28;20419;-64
2023/06/24 02:39:44;;;;;;;6.50;4.45;;;25.10;79.70;;;;;;5013882;28;20049;-61
2023/06/24 02:42:11;;;;;;;6.05;4.22;;;24.90;79.70;;;;;;5012690;28;20488;-62
2023/06/24 02:44:40;;;;;;;7.22;4.45;;;24.80;79.80;;;;;;5009998;28;20408;-61
2023/06/24 02:47:07;;;;;;;6.85;4.53;;;24.80;79.80;;;;;;5011619;28;20049;-61
2023/06/24 02:49:33;;;;;;;6.75;4.07;;;24.90;79.90;;;;;;5012134;28;20467;-64
2023/06/24 02:51:58;;;;;;;6.00;4.13;;;25.00;79.40;;;;;;5012815;28;20125;-61
2023/06/24 02:54:24;;;;;;;7.38;5.03;;;24.80;79.60;;;;;;5013036;28;20052;-60
2023/06/24 02:56:50;;;;;;;6.07;4.22;;;24.60;79.30;;;;;;5008741;28;20507;-60
2023/06/24 02:59:16;;;;;;;6.22;4.10;;;24.80;79.50;;;;;;5011053;28;20042;-65
2023/06/24 03:01:45;;;;;;;5.00;3.58;;;24.70;79.50;;;;;;5013490;28;20133;-64
2023/06/24 03:04:10;;;;;;;7.15;4.13;;;24.60;79.50;;;;;;5010303;28;20062;-63
2023/06/24 03:06:39;;;;;;;6.22;3.97;;;24.60;79.40;;;;;;5012261;28;20061;-60
2023/06/24 03:09:05;;;;;;;5.70;4.05;;;24.60;79.60;;;;;;5007896;28;20042;-63
2023/06/24 03:11:31;;;;;;;6.97;4.30;;;24.60;79.60;;;;;;4993204;28;20058;-61
2023/06/24 03:13:57;;;;;;;6.65;4.53;;;24.70;79.50;;;;;;5012560;28;20041;-61
2023/06/24 03:16:23;;;;;;;6.93;4.13;;;24.90;79.70;;;;;;5012869;28;20491;-61
2023/06/24 03:18:49;;;;;;;8.10;4.53;;;24.50;79.40;;;;;;5011037;28;20053;-61
2023/06/24 03:21:15;;;;;;;7.95;5.00;;;24.70;79.50;;;;;;4994310;28;20046;-66
2023/06/24 03:23:41;;;;;;;8.05;4.35;;;24.80;79.70;;;;;;5009267;28;20031;-62
2023/06/24 03:26:09;;;;;;;7.95;5.13;;;24.60;79.40;;;;;;4994080;28;20404;-63
2023/06/24 03:28:35;;;;;;;7.00;4.45;;;25.10;78.80;;;;;;4997574;28;20395;-61
2023/06/24 03:31:01;;;;;;;7.07;4.50;;;24.70;82.60;;;;;;5019885;28;20046;-62
2023/06/24 03:33:27;;;;;;;8.30;4.85;;;24.60;79.60;;;;;;5004978;28;20046;-62
2023/06/24 03:35:54;;;;;;;7.05;4.50;;;24.90;82.50;;;;;;4999488;28;20543;-61
2023/06/24 03:38:20;;;;;;;6.05;4.38;;;24.50;79.60;;;;;;5012234;28;20407;-64
2023/06/24 03:40:45;;;;;;;7.68;4.55;;;24.80;82.60;;;;;;5011622;28;20045;-68
2023/06/24 03:43:11;;;;;;;6.13;4.57;;;24.80;79.60;;;;;;5012823;28;20553;-67
2023/06/24 03:45:37;;;;;;;6.68;4.40;;;24.50;79.60;;;;;;5012134;28;20108;-62
2023/06/24 03:48:03;;;;;;;6.45;4.25;;;24.70;79.80;;;;;;5010554;28;20085;-64
2023/06/24 03:50:29;;;;;;;6.75;4.30;;;24.70;83.50;;;;;;5010554;28;20496;-62
2023/06/24 03:52:55;;;;;;;7.80;4.35;;;24.70;83.20;;;;;;5011074;28;20129;-69
2023/06/24 03:55:21;;;;;;;6.80;4.50;;;24.80;80.00;;;;;;4993027;28;20104;-62
2023/06/24 03:57:46;;;;;;;6.80;4.32;;;24.60;79.90;;;;;;4993086;28;20050;-68
2023/06/24 04:00:16;;;;;;;7.00;4.18;;;24.60;83.00;;;;;;4992944;28;20046;-68
2023/06/24 04:02:42;;;;;;;5.43;3.67;;;24.70;79.70;;;;;;5008384;28;20038;-69
2023/06/24 04:05:09;;;;;;;8.15;4.72;;;24.80;80.40;;;;;;5012822;28;20053;-61
2023/06/24 04:07:35;;;;;;;8.80;4.60;;;25.00;80.60;;;;;;5009384;28;20061;-74
2023/06/24 04:10:02;;;;;;;7.43;4.78;;;24.70;83.80;;;;;;5008319;28;20042;-74
2023/06/24 04:12:28;;;;;;;7.28;4.50;;;25.00;84.00;;;;;;5006351;28;20042;-66
2023/06/24 04:14:53;;;;;;;8.93;5.05;;;25.10;80.70;;;;;;4993181;28;20129;-74
2023/06/24 04:17:19;;;;;;;7.50;4.32;;;25.00;80.70;;;;;;4999165;28;20550;-67
2023/06/24 04:19:45;;;;;;;8.15;4.88;;;24.80;83.60;;;;;;5011158;28;20057;-73
2023/06/24 04:22:11;;;;;;;7.28;4.68;;;24.80;80.70;;;;;;5010781;28;20050;-63
2023/06/24 04:24:37;;;;;;;9.27;5.05;;;24.80;80.70;;;;;;5010337;28;20049;-73
2023/06/24 04:27:02;;;;;;;8.10;4.95;;;24.70;84.40;;;;;;5008536;28;20082;-69
2023/06/24 04:29:28;;;;;;;7.88;5.00;;;24.60;80.40;;;;;;5007585;28;20037;-63
2023/06/24 04:31:54;;;;;;;8.23;4.63;;;24.90;80.70;;;;;;5009903;28;20045;-60
2023/06/24 04:34:20;;;;;;;8.05;4.93;;;24.70;80.60;;;;;;5013022;28;20045;-71
2023/06/24 04:36:45;;;;;;;8.85;5.20;;;24.80;84.10;;;;;;5016457;28;20046;-69
2023/06/24 04:39:11;;;;;;;9.07;5.35;;;25.10;84.10;;;;;;5015363;28;20041;-74
2023/06/24 04:41:37;;;;;;;7.07;4.82;;;24.70;80.70;;;;;;5013333;28;20085;-73
2023/06/24 04:44:03;;;;;;;8.38;5.20;;;24.80;80.60;;;;;;4998849;28;20081;-65
2023/06/24 04:46:29;;;;;;;7.90;5.20;;;24.80;80.60;;;;;;5015741;28;20107;-69
2023/06/24 04:48:55;;;;;;;9.00;5.13;;;24.80;80.50;;;;;;5015045;28;20148;-70
2023/06/24 04:51:20;;;;;;;9.70;5.15;;;24.90;80.30;;;;;;5014916;28;20493;-70
2023/06/24 04:53:46;;;;;;;8.95;5.05;;;24.80;80.40;;;;;;5013343;28;20050;-65
2023/06/24 04:56:12;;;;;;;7.97;5.18;;;24.80;81.00;;;;;;5016095;28;20048;-71
2023/06/24 04:58:38;;;;;;;7.90;5.00;;;24.90;80.20;;;;;;5014913;28;20474;-68
2023/06/24 05:01:04;;;;;;;8.43;4.72;;;24.90;80.20;;;;;;5009842;28;20121;-70
2023/06/24 05:03:29;;;;;;;10.10;5.60;;;25.20;79.90;;;;;;5011983;28;20042;-70
2023/06/24 05:05:55;;;;;;;8.95;4.85;;;25.50;80.00;;;;;;4997749;28;20046;-62
2023/06/24 05:08:21;;;;;;;8.15;4.60;;;25.70;80.00;;;;;;5015548;28;20042;-63
2023/06/24 05:10:46;;;;;;;7.30;4.90;;;25.40;79.40;;;;;;5007625;28;20567;-61
2023/06/24 05:13:12;;;;;;;7.00;4.93;;;25.80;79.30;;;;;;4996291;28;20042;-61
2023/06/24 05:15:38;;;;;;;7.75;4.95;;;25.70;79.00;;;;;;5013266;28;20050;-62
2023/06/24 05:18:04;;;;;;;9.48;5.05;;;25.80;78.80;;;;;;5010644;28;20034;-68
2023/06/24 05:20:29;;;;;;;8.85;5.00;;;26.20;78.80;;;;;;5004218;28;20037;-61
2023/06/24 05:22:55;;;;;;;9.35;5.13;;;26.30;78.60;;;;;;5004770;28;20042;-60
2023/06/24 05:25:21;;;;;;;9.00;5.13;;;26.40;78.40;;;;;;5014896;28;20057;-61
2023/06/24 05:27:46;;;;;;;6.65;4.97;;;26.60;78.10;;;;;;5015233;28;20129;-64
2023/06/24 05:30:14;;;;;;;8.35;5.15;;;26.50;77.90;;;;;;5013366;28;20045;-60
2023/06/24 05:32:40;;;;;;;7.85;4.63;;;26.60;77.80;;;;;;5006574;28;20416;-60
2023/06/24 05:35:06;;;;;;;7.28;4.95;;;26.70;77.70;;;;;;5004123;28;20042;-61
2023/06/24 05:37:32;;;;;;;8.93;4.88;;;26.90;77.20;;;;;;5015601;28;20523;-60
2023/06/24 05:40:01;;;;;;;7.30;4.53;;;27.00;78.20;;;;;;5013528;28;20188;-61
2023/06/24 05:42:27;;;;;;;8.70;5.00;;;26.90;77.20;;;;;;5015319;28;20081;-64
2023/06/24 05:44:53;;;;;;;9.90;5.40;;;26.80;77.00;;;;;;5015003;28;20499;-61
2023/06/24 05:47:19;;;;;;;8.70;5.00;;;27.20;76.70;;;;;;5012460;28;20050;-69
2023/06/24 05:49:45;;;;;;;9.77;5.45;;;27.00;76.10;;;;;;5012731;28;20078;-69
2023/06/24 05:52:11;;;;;;;8.02;5.18;;;26.90;75.40;;;;;;5010950;28;20400;-70
2023/06/24 05:54:37;;;;;;;8.20;5.55;;;27.10;75.60;;;;;;5006412;28;20058;-69
2023/06/24 05:57:06;;;;;;;11.90;5.30;;;26.80;75.30;;;;;;4994985;28;20046;-69
2023/06/24 05:59:35;;;;;;;10.82;5.50;;;27.20;75.10;;;;;;5005263;28;20042;-69
2023/06/24 06:02:01;;;;;;;10.07;5.10;;;27.00;75.20;;;;;;5014628;28;20060;-69
2023/06/24 06:04:28;;;;;;;7.28;5.03;;;27.10;75.20;;;;;;5011524;28;20038;-60
2023/06/24 06:06:53;;;;;;;7.25;4.53;;;27.00;75.20;;;;;;4995372;28;20057;-68
2023/06/24 06:09:20;;;;;;;8.95;5.47;;;27.00;74.80;;;;;;4997842;28;20042;-61
2023/06/24 06:11:46;;;;;;;7.60;5.28;;;27.20;74.80;;;;;;5010456;28;20052;-62
2023/06/24 06:14:11;;;;;;;7.82;5.30;;;27.10;74.70;;;;;;5015139;28;20399;-63
2023/06/24 06:16:37;;;;;;;7.72;5.10;;;27.00;74.60;;;;;;5014750;28;20123;-63
2023/06/24 06:19:03;;;;;;;8.27;5.25;;;27.10;74.60;;;;;;5013177;28;20037;-63
2023/06/24 06:21:29;;;;;;;9.00;5.80;;;26.90;74.30;;;;;;5016738;28;20053;-60
2023/06/24 06:23:54;;;;;;;9.05;6.20;;;27.20;74.50;;;;;;5018611;28;20084;-62
2023/06/24 06:26:21;;;;;;;8.70;5.63;;;27.10;74.10;;;;;;5010421;28;20050;-61
2023/06/24 06:28:49;;;;;;;12.80;5.88;;;27.00;74.30;;;;;;5012449;28;20038;-62
2023/06/24 06:31:15;;;;;;;10.75;5.40;;;27.00;73.30;;;;;;4999586;28;20057;-64
2023/06/24 06:33:41;;;;;;;8.63;5.28;;;27.10;74.30;;;;;;5003774;28;20045;-61
2023/06/24 06:36:07;;;;;;;10.63;5.82;;;27.10;74.40;;;;;;5001842;28;20424;-61
2023/06/24 06:38:33;;;;;;;9.05;5.10;;;27.10;74.30;;;;;;4994694;28;20047;-60
2023/06/24 06:41:00;;;;;;;10.05;5.50;;;27.20;74.20;;;;;;5013913;28;20046;-61
2023/06/24 06:43:25;;;;;;;8.30;5.95;;;27.00;74.10;;;;;;5014348;28;20073;-62
2023/06/24 06:45:51;;;;;;;9.48;5.78;;;26.90;74.00;;;;;;5013277;28;20525;-66
2023/06/24 06:48:17;;;;;;;10.40;6.40;;;27.10;74.10;;;;;;4998893;28;20479;-61
2023/06/24 06:50:43;;;;;;;8.13;6.03;;;27.20;74.00;;;;;;5013924;28;20041;-67
2023/06/24 06:53:09;;;;;;;8.93;5.72;;;27.30;74.60;;;;;;5014293;28;20046;-62
2023/06/24 06:55:36;;;;;;;8.00;5.70;;;27.20;74.30;;;;;;5013471;28;20042;-64
2023/06/24 06:58:02;;;;;;;8.15;6.03;;;27.50;74.50;;;;;;5012268;28;20130;-66
2023/06/24 07:00:28;;;;;;;10.30;5.95;;;27.30;74.20;;;;;;5012311;28;20066;-65
2023/06/24 07:02:53;;;;;;;11.15;6.13;;;27.60;74.20;;;;;;5012592;28;20048;-65
2023/06/24 07:05:19;;;;;;;10.07;6.65;;;27.50;74.10;;;;;;5013900;28;20077;-60
2023/06/24 07:07:46;;;;;;;7.78;6.30;;;27.70;74.30;;;;;;4993486;28;20099;-60
2023/06/24 07:10:12;;;;;;;10.25;6.05;;;27.30;74.30;;;;;;5011644;28;20407;-61
2023/06/24 07:12:38;;;;;;;8.98;6.20;;;27.40;74.10;;;;;;5011092;28;20046;-63
2023/06/24 07:15:04;;;;;;;12.75;6.97;;;27.40;74.40;;;;;;4993988;28;20065;-60
2023/06/24 07:17:30;;;;;;;10.20;6.97;;;27.20;73.90;;;;;;5002168;28;20061;-63
2023/06/24 07:19:56;;;;;;;9.18;6.25;;;27.30;74.50;;;;;;5008421;28;20389;-61
2023/06/24 07:22:22;;;;;;;9.52;6.50;;;27.20;74.50;;;;;;5011519;28;20125;-64
2023/06/24 07:24:47;;;;;;;9.00;6.57;;;27.30;74.60;;;;;;5010813;28;20042;-60
2023/06/24 07:27:13;;;;;;;10.13;6.32;;;27.40;74.80;;;;;;5011399;28;20123;-61
2023/06/24 07:29:39;;;;;;;14.02;6.63;;;27.10;74.70;;;;;;5011658;28;20495;-62
2023/06/24 07:32:07;;;;;;;9.60;6.13;;;27.20;74.80;;;;;;5012339;28;20077;-61
2023/06/24 07:34:33;;;;;;;8.15;6.20;;;27.00;74.50;;;;;;5009415;28;20053;-61
2023/06/24 07:36:58;;;;;;;9.40;6.55;;;26.90;74.50;;;;;;5010622;28;20054;-60
2023/06/24 07:39:24;;;;;;;11.13;6.55;;;27.50;75.00;;;;;;5011214;28;20049;-72
2023/06/24 07:41:50;;;;;;;12.43;7.45;;;27.50;75.10;;;;;;5011695;28;20120;-61
2023/06/24 07:44:16;;;;;;;8.98;7.20;;;27.50;74.90;;;;;;5013007;28;20113;-60
2023/06/24 07:46:41;;;;;;;9.25;6.88;;;27.20;74.80;;;;;;5012033;28;20407;-73
2023/06/24 07:49:07;;;;;;;9.05;6.60;;;27.20;74.80;;;;;;5010539;28;20512;-71
2023/06/24 07:51:35;;;;;;;10.55;7.07;;;27.40;74.90;;;;;;5003245;28;20514;-62
2023/06/24 07:54:01;;;;;;;8.25;5.90;;;27.10;75.10;;;;;;5006165;28;20463;-63
2023/06/24 07:56:26;;;;;;;8.93;6.38;;;27.30;75.00;;;;;;5011838;28;20050;-73
2023/06/24 07:58:52;;;;;;;7.55;6.07;;;27.40;74.90;;;;;;5013021;28;20394;-72
2023/06/24 08:01:18;;;;;;;7.28;5.75;;;27.40;74.90;;;;;;5012604;28;20046;-64
2023/06/24 08:03:44;;;;;;;11.15;6.97;;;27.80;75.00;;;;;;5004906;28;20045;-62
2023/06/24 08:06:09;;;;;;;8.90;6.13;;;27.50;74.80;;;;;;5002755;28;20503;-61
2023/06/24 08:08:35;;;;;;;8.88;6.57;;;27.60;74.80;;;;;;5000535;28;20053;-64
2023/06/24 08:11:02;;;;;;;9.15;6.50;;;27.60;75.10;;;;;;5016202;28;20050;-63
2023/06/24 08:13:28;;;;;;;7.53;6.13;;;27.50;75.30;;;;;;5016346;28;20055;-61
2023/06/24 08:15:54;;;;;;;9.20;5.45;;;27.60;75.10;;;;;;5014076;28;20395;-70
2023/06/24 08:18:20;;;;;;;8.57;5.97;;;27.50;75.00;;;;;;5016885;28;20048;-65
2023/06/24 08:20:45;;;;;;;9.98;6.57;;;27.60;75.00;;;;;;5016903;28;20069;-61
2023/06/24 08:23:11;;;;;;;12.23;7.45;;;27.70;75.00;;;;;;5015003;28;20655;-66
2023/06/24 08:25:37;;;;;;;8.55;5.93;;;27.80;75.00;;;;;;5016305;28;20071;-65
2023/06/24 08:28:03;;;;;;;12.18;8.23;;;27.80;75.00;;;;;;5014383;28;20034;-60
2023/06/24 08:30:29;;;;;;;11.65;8.40;;;27.90;74.60;;;;;;5016490;28;20046;-69
2023/06/24 08:32:55;;;;;;;13.65;8.18;;;27.90;74.60;;;;;;5016497;28;20033;-69
2023/06/24 08:35:21;;;;;;;10.65;8.50;;;27.80;74.70;;;;;;5015002;28;20464;-67
2023/06/24 08:37:47;;;;;;;12.27;8.63;;;27.90;74.40;;;;;;5014382;28;20088;-63
2023/06/24 08:40:13;;;;;;;10.98;7.97;;;27.70;74.80;;;;;;5016079;28;20052;-60
2023/06/24 08:42:39;;;;;;;10.38;7.40;;;27.80;74.40;;;;;;5022855;28;20046;-64
2023/06/24 08:45:05;;;;;;;10.52;8.15;;;27.70;74.40;;;;;;5004225;28;20400;-70
2023/06/24 08:47:31;;;;;;;15.65;8.85;;;27.70;74.70;;;;;;5012420;28;20046;-70
2023/06/24 08:50:11;;;;;;;13.02;8.52;;;27.80;75.10;;;;;;5015917;28;20060;-71
2023/06/24 08:52:38;;;;;;;12.25;8.15;;;27.50;75.60;;;;;;5004437;28;20066;-70
2023/06/24 08:55:05;;;;;;;11.55;8.20;;;27.90;75.80;;;;;;5010599;28;20049;-71
2023/06/24 08:57:31;;;;;;;10.63;8.02;;;27.70;76.00;;;;;;4996135;28;20053;-69
2023/06/24 08:59:57;;;;;;;10.75;7.75;;;27.60;75.90;;;;;;5007390;28;20099;-67
2023/06/24 09:02:22;;;;;;;10.13;6.28;;;27.40;75.80;;;;;;5015821;28;20054;-70
2023/06/24 09:04:50;;;;;;;9.65;5.93;;;27.50;75.60;;;;;;5013843;28;20038;-70
2023/06/24 09:07:27;;;;;;;9.98;6.00;;;27.50;75.70;;;;;;5014735;28;20050;-69
2023/06/24 09:09:53;;;;;;;11.25;6.22;;;28.10;74.60;;;;;;5012918;28;20456;-62
2023/06/24 09:12:19;;;;;;;9.95;6.05;;;27.80;75.30;;;;;;5007800;28;20065;-60
2023/06/24 09:14:48;;;;;;;9.38;6.18;;;27.70;75.30;;;;;;5005437;28;20064;-60
2023/06/24 09:17:14;;;;;;;13.93;6.18;;;27.70;75.90;;;;;;5008933;28;20042;-69
2023/06/24 09:19:41;;;;;;;10.07;5.85;;;27.60;75.30;;;;;;5014105;28;20466;-69
2023/06/24 09:22:08;;;;;;;11.02;5.90;;;27.70;75.30;;;;;;5014522;28;20388;-68
2023/06/24 09:24:34;;;;;;;9.50;5.97;;;28.00;75.60;;;;;;5014276;28;20084;-70
2023/06/24 09:27:00;;;;;;;9.25;6.00;;;27.90;75.40;;;;;;5015509;28;20046;-68
2023/06/24 09:29:30;;;;;;;10.25;5.63;;;28.10;75.20;;;;;;5014761;28;20096;-69
2023/06/24 09:31:56;;;;;;;7.80;5.65;;;28.00;75.20;;;;;;5009320;28;20046;-60
2023/06/24 09:34:22;;;;;;;10.00;5.88;;;28.40;75.00;;;;;;5013351;28;20053;-69
2023/06/24 09:36:52;;;;;;;8.30;5.57;;;28.00;74.50;;;;;;5015429;28;20064;-69
2023/06/24 09:39:18;;;;;;;9.23;5.90;;;28.10;74.80;;;;;;5015346;28;20131;-69
2023/06/24 09:41:50;;;;;;;11.75;6.32;;;28.00;74.10;;;;;;5011811;28;20500;-62
2023/06/24 09:44:16;;;;;;;11.10;6.30;;;28.10;72.90;;;;;;5005292;28;20092;-70
2023/06/24 09:46:42;;;;;;;8.07;5.85;;;28.10;73.80;;;;;;5013506;28;20478;-70
2023/06/24 09:49:08;;;;;;;6.63;4.88;;;28.00;74.00;;;;;;5014563;28;20061;-70
2023/06/24 09:51:37;;;;;;;8.43;5.60;;;27.80;73.60;;;;;;5002024;28;20488;-60
2023/06/24 09:54:09;;;;;;;8.95;5.30;;;27.80;74.30;;;;;;5011911;28;20056;-72
2023/06/24 09:56:37;;;;;;;11.00;5.40;;;28.00;73.00;;;;;;5014847;28;20702;-66
2023/06/24 09:59:04;;;;;;;9.30;6.03;;;27.90;74.40;;;;;;5014977;28;20057;-68
2023/06/24 10:01:30;;;;;;;11.25;5.47;;;28.00;74.60;;;;;;5014717;28;20141;-70
2023/06/24 10:03:55;;;;;;;10.30;5.95;;;28.00;74.30;;;;;;4993621;28;20133;-68
2023/06/24 10:06:21;;;;;;;10.68;5.72;;;28.00;74.20;;;;;;5010944;28;20046;-70
2023/06/24 10:08:47;;;;;;;8.85;5.28;;;27.90;74.10;;;;;;4980208;28;20053;-65
2023/06/24 10:11:13;;;;;;;7.53;5.07;;;27.90;73.70;;;;;;4977721;28;20526;-69
2023/06/24 10:13:39;;;;;;;8.82;5.80;;;28.20;74.00;;;;;;4994362;28;20088;-70
2023/06/24 10:16:04;;;;;;;9.02;5.53;;;28.40;74.00;;;;;;5004009;28;20052;-65
2023/06/24 10:18:35;;;;;;;8.63;5.45;;;28.30;73.90;;;;;;4997962;28;20091;-69
2023/06/24 10:21:01;;;;;;;8.77;5.38;;;28.30;74.30;;;;;;4993860;28;20514;-68
2023/06/24 10:23:39;;;;;;;9.43;5.40;;;28.30;74.00;;;;;;4977937;28;20050;-73
2023/06/24 10:26:08;;;;;;;11.93;5.18;;;28.40;72.50;;;;;;4993977;28;20613;-67
2023/06/24 10:29:05;;;;;;;11.88;5.10;;;28.60;73.90;;;;;;4980625;28;20062;-66
2023/06/24 10:31:40;;;;;;;11.35;4.97;;;28.50;72.30;;;;;;5013063;28;20076;-71
2023/06/24 10:34:29;;;;;;;11.07;5.40;;;28.60;73.50;;;;;;5007460;28;20061;-66
2023/06/24 10:36:55;;;;;;;8.35;5.57;;;28.80;71.60;;;;;;5010930;28;20133;-70
2023/06/24 10:39:41;;;;;;;9.35;4.88;;;28.70;72.20;;;;;;4995493;28;20149;-70
2023/06/24 10:42:25;;;;;;;7.57;5.00;;;28.60;72.50;;;;;;4984978;28;20069;-68
2023/06/24 10:44:51;;;;;;;7.93;4.60;;;28.60;71.30;;;;;;4997295;28;20522;-60
2023/06/24 10:47:17;;;;;;;11.20;5.00;;;28.50;72.70;;;;;;4992295;28;20058;-65
2023/06/24 10:49:43;;;;;;;7.80;4.43;;;28.70;73.10;;;;;;5012258;28;20539;-65
2023/06/24 10:52:09;;;;;;;8.18;4.97;;;28.70;72.70;;;;;;5013660;28;20085;-65
2023/06/24 10:54:39;;;;;;;7.43;4.78;;;28.50;72.80;;;;;;5011475;28;20103;-61
2023/06/24 10:57:05;;;;;;;11.38;4.38;;;28.40;71.10;;;;;;5011894;28;20506;-65
2023/06/24 10:59:35;;;;;;;8.77;5.15;;;28.50;72.20;;;;;;4997347;28;20038;-65
2023/06/24 11:02:00;;;;;;;9.50;4.60;;;28.30;72.00;;;;;;4994319;28;20078;-68
2023/06/24 11:04:26;;;;;;;9.52;4.85;;;28.80;72.10;;;;;;5009803;28;20061;-62
2023/06/24 11:06:59;;;;;;;7.78;4.68;;;28.40;71.80;;;;;;4997294;28;20049;-66
2023/06/24 11:09:25;;;;;;;7.50;4.53;;;28.60;72.10;;;;;;4994114;28;20088;-68
2023/06/24 11:11:50;;;;;;;9.65;4.40;;;28.50;71.70;;;;;;4993675;28;20441;-65
2023/06/24 11:14:16;;;;;;;7.68;4.78;;;28.40;71.70;;;;;;5011923;28;20116;-62
2023/06/24 11:16:42;;;;;;;8.60;4.70;;;28.40;71.90;;;;;;5011840;28;20070;-63
2023/06/24 11:19:08;;;;;;;14.50;4.60;;;28.40;72.20;;;;;;5009231;28;20053;-64
2023/06/24 11:21:34;;;;;;;7.25;4.70;;;28.20;71.80;;;;;;4995455;28;20112;-60
2023/06/24 11:24:02;;;;;;;6.65;4.38;;;28.40;71.80;;;;;;4993838;28;20038;-61
2023/06/24 11:26:27;;;;;;;6.22;4.18;;;28.40;72.20;;;;;;4998948;28;20045;-61
2023/06/24 11:28:53;;;;;;;6.57;4.03;;;28.60;71.80;;;;;;5009925;28;20180;-60
2023/06/24 11:31:19;;;;;;;7.50;4.28;;;28.50;71.50;;;;;;5013082;28;20582;-61
2023/06/24 11:33:54;;;;;;;10.32;4.57;;;28.40;71.50;;;;;;4995328;28;20038;-61
2023/06/24 11:36:20;;;;;;;8.15;4.47;;;28.40;71.10;;;;;;5009887;28;20037;-62
2023/06/24 11:38:47;;;;;;;8.02;4.90;;;28.60;71.10;;;;;;5008090;28;20066;-71
2023/06/24 11:41:14;;;;;;;6.75;4.50;;;28.60;71.30;;;;;;4997771;28;20038;-59
2023/06/24 11:43:46;;;;;;;7.32;4.50;;;28.60;71.90;;;;;;5011254;28;20046;-60
2023/06/24 11:46:24;;;;;;;7.60;4.35;;;28.50;71.80;;;;;;5010211;28;20400;-62
2023/06/24 11:48:50;;;;;;;7.32;4.50;;;28.80;72.20;;;;;;5012574;28;20475;-60
2023/06/24 11:51:16;;;;;;;7.28;4.15;;;28.60;71.40;;;;;;5012953;28;20042;-61
2023/06/24 11:53:45;;;;;;;5.88;4.10;;;28.60;71.40;;;;;;5013019;28;20057;-62
2023/06/24 11:56:12;;;;;;;7.25;4.60;;;28.60;70.40;;;;;;5009630;28;20084;-60
2023/06/24 11:58:38;;;;;;;8.38;4.30;;;28.90;71.90;;;;;;5011859;28;20388;-61
2023/06/24 12:01:06;;;;;;;7.25;4.13;;;28.70;71.60;;;;;;5012206;28;20045;-60
2023/06/24 12:03:33;;;;;;;7.45;4.50;;;28.60;71.60;;;;;;5011283;28;20041;-60
2023/06/24 12:05:59;;;;;;;7.95;4.03;;;28.80;71.30;;;;;;5009638;28;20046;-68
2023/06/24 12:08:25;;;;;;;6.35;4.50;;;28.60;71.10;;;;;;5005169;28;20042;-62
2023/06/24 12:10:51;;;;;;;10.80;4.72;;;28.80;71.00;;;;;;5000488;28;20062;-60
2023/06/24 12:13:17;;;;;;;7.43;4.20;;;28.90;71.10;;;;;;5008905;28;20135;-61
2023/06/24 12:15:43;;;;;;;9.70;4.30;;;28.80;70.90;;;;;;5009746;28;20077;-61
2023/06/24 12:18:09;;;;;;;8.07;5.05;;;28.70;70.70;;;;;;5012006;28;20046;-60
2023/06/24 12:20:36;;;;;;;7.00;4.35;;;29.00;70.90;;;;;;5009053;28;20045;-60
2023/06/24 12:23:03;;;;;;;7.90;4.50;;;28.80;70.70;;;;;;5009409;28;20085;-65
2023/06/24 12:25:29;;;;;;;8.45;4.70;;;28.90;70.70;;;;;;5003705;28;20050;-60
2023/06/24 12:27:55;;;;;;;6.80;4.45;;;28.90;70.60;;;;;;5012777;28;20505;-62
2023/06/24 12:30:21;;;;;;;6.97;4.28;;;29.00;70.60;;;;;;5010268;28;20053;-62
2023/06/24 12:32:50;;;;;;;5.93;4.38;;;29.00;70.50;;;;;;5011860;28;20056;-60
2023/06/24 12:35:16;;;;;;;7.97;4.57;;;28.90;70.80;;;;;;5010207;28;20112;-68
2023/06/24 12:37:42;;;;;;;14.80;4.82;;;29.00;70.50;;;;;;5011505;28;20052;-71
2023/06/24 12:40:08;;;;;;;10.63;4.95;;;28.90;70.60;;;;;;4998730;28;20500;-67
2023/06/24 12:42:34;;;;;;;21.55;5.40;;;28.90;70.40;;;;;;4993002;28;20118;-69
2023/06/24 12:45:00;;;;;;;11.25;4.60;;;29.00;70.80;;;;;;4992936;28;20062;-64